Time;durP1;ratioP1;P1;durP2;ratioP2;P2;SDS_P1;SDS_P2;PMS_P1;PMS_P2;Temp;Humidity;BMP_temperature;BMP_pressure;BME280_temperature;BME280_humidity;BME280_pressure;Samples;Min_cycle;Max_cycle;Signal;HPM_P1;HPM_P2
2023/03/19 00:02:08;;;;;;;1.10;1.00;;;13.10;99.90;;;;;;4954449;28;20211;-70
2023/03/19 00:04:45;;;;;;;0.55;0.43;;;13.10;99.90;;;;;;4958404;28;20219;-72
2023/03/19 00:07:13;;;;;;;0.60;0.40;;;13.00;99.90;;;;;;4950828;28;20215;-72
2023/03/19 00:09:41;;;;;;;0.68;0.63;;;13.00;99.90;;;;;;4952846;28;20231;-71
2023/03/19 00:12:11;;;;;;;0.60;0.52;;;13.10;99.90;;;;;;4954639;28;20211;-71
2023/03/19 00:14:40;;;;;;;0.60;0.55;;;13.10;99.90;;;;;;4959271;28;20199;-71
2023/03/19 00:17:08;;;;;;;0.80;0.75;;;13.20;99.90;;;;;;4953890;28;20278;-71
2023/03/19 00:19:35;;;;;;;0.50;0.40;;;13.20;99.90;;;;;;4959760;28;20239;-71
2023/03/19 00:22:03;;;;;;;1.55;0.80;;;13.10;99.90;;;;;;4968210;28;20238;-71
2023/03/19 00:24:32;;;;;;;0.60;0.50;;;13.20;99.90;;;;;;4950852;28;20290;-71
2023/03/19 00:27:00;;;;;;;0.60;0.40;;;13.20;99.90;;;;;;4962168;28;20208;-72
2023/03/19 00:29:29;;;;;;;0.60;0.50;;;13.10;99.90;;;;;;4958684;28;20306;-69
2023/03/19 00:31:57;;;;;;;1.40;1.27;;;13.10;99.90;;;;;;4961423;28;20281;-71
2023/03/19 00:34:25;;;;;;;0.85;0.60;;;13.10;99.90;;;;;;4960978;28;20689;-71
2023/03/19 00:36:55;;;;;;;1.13;0.60;;;13.10;99.90;;;;;;4950656;28;20258;-71
2023/03/19 00:39:23;;;;;;;0.57;0.47;;;13.00;99.90;;;;;;4958683;28;20234;-71
2023/03/19 00:41:50;;;;;;;0.55;0.40;;;13.00;99.90;;;;;;4958539;28;20222;-71
2023/03/19 00:44:19;;;;;;;0.90;0.70;;;12.80;99.90;;;;;;4965724;28;20231;-71
2023/03/19 00:46:48;;;;;;;0.60;0.50;;;12.80;99.90;;;;;;4952612;28;20238;-71
2023/03/19 00:49:16;;;;;;;0.60;0.52;;;12.90;99.90;;;;;;4956734;28;20321;-70
2023/03/19 00:51:44;;;;;;;0.60;0.40;;;12.90;99.90;;;;;;4959087;28;20306;-71
2023/03/19 00:54:12;;;;;;;0.70;0.50;;;13.00;99.90;;;;;;4956265;28;20219;-71
2023/03/19 00:56:40;;;;;;;0.50;0.40;;;13.00;99.90;;;;;;4954726;28;20305;-71
2023/03/19 00:59:08;;;;;;;1.27;0.70;;;12.90;99.90;;;;;;4963528;28;20318;-71
2023/03/19 01:01:36;;;;;;;0.50;0.40;;;12.90;99.90;;;;;;4952740;28;20277;-71
2023/03/19 01:04:05;;;;;;;0.60;0.40;;;13.00;99.90;;;;;;4962166;28;20211;-72
2023/03/19 01:06:34;;;;;;;0.55;0.40;;;12.90;99.90;;;;;;4957165;28;20211;-72
2023/03/19 01:09:02;;;;;;;0.70;0.60;;;12.80;99.90;;;;;;4958193;28;20306;-72
2023/03/19 01:11:31;;;;;;;0.80;0.60;;;12.80;99.90;;;;;;4951739;28;20710;-70
2023/03/19 01:13:59;;;;;;;1.00;1.00;;;12.70;99.90;;;;;;4945195;28;20199;-72
2023/03/19 01:16:27;;;;;;;0.85;0.60;;;12.70;99.90;;;;;;4951518;28;20203;-71
2023/03/19 01:18:55;;;;;;;0.60;0.60;;;12.70;99.90;;;;;;4959239;28;20263;-71
2023/03/19 01:21:24;;;;;;;1.00;0.90;;;12.70;99.90;;;;;;4954009;28;20253;-73
2023/03/19 01:23:52;;;;;;;0.73;0.73;;;12.60;99.90;;;;;;4959160;28;20705;-71
2023/03/19 01:26:20;;;;;;;0.65;0.55;;;12.70;99.90;;;;;;4967266;28;20238;-71
2023/03/19 01:28:49;;;;;;;0.52;0.40;;;12.60;99.90;;;;;;4959439;28;20235;-71
2023/03/19 01:31:16;;;;;;;0.70;0.40;;;12.50;99.90;;;;;;4950625;28;20223;-71
2023/03/19 01:33:45;;;;;;;0.70;0.52;;;12.50;99.90;;;;;;4960871;28;20207;-72
2023/03/19 01:36:13;;;;;;;0.65;0.50;;;12.50;99.90;;;;;;4953240;28;20211;-71
2023/03/19 01:38:42;;;;;;;1.63;0.70;;;12.50;99.90;;;;;;4950662;28;20235;-72
2023/03/19 01:41:11;;;;;;;0.55;0.40;;;12.40;99.90;;;;;;4960890;28;20298;-72
2023/03/19 01:43:38;;;;;;;0.88;0.57;;;12.40;99.90;;;;;;4962769;28;20210;-71
2023/03/19 01:46:14;;;;;;;0.60;0.57;;;12.40;99.90;;;;;;4959778;28;20247;-71
2023/03/19 01:48:45;;;;;;;0.70;0.45;;;12.30;99.90;;;;;;4959421;28;20321;-72
2023/03/19 01:51:16;;;;;;;0.60;0.40;;;12.30;99.90;;;;;;4958805;28;20230;-71
2023/03/19 01:53:49;;;;;;;1.30;0.65;;;12.30;99.90;;;;;;4952348;28;20256;-71
2023/03/19 01:56:21;;;;;;;0.80;0.60;;;12.40;99.90;;;;;;4951634;28;20302;-72
2023/03/19 01:58:53;;;;;;;0.50;0.40;;;12.40;99.90;;;;;;4953796;28;20235;-71
2023/03/19 02:01:21;;;;;;;1.00;0.90;;;12.30;99.90;;;;;;4955005;28;20774;-71
2023/03/19 02:03:50;;;;;;;0.60;0.40;;;12.30;99.90;;;;;;4951977;28;20207;-71
2023/03/19 02:06:20;;;;;;;0.68;0.60;;;12.40;99.90;;;;;;4949348;28;20207;-71
2023/03/19 02:08:52;;;;;;;0.70;0.50;;;12.40;99.90;;;;;;4947338;28;20256;-71
2023/03/19 02:11:21;;;;;;;0.50;0.40;;;12.30;99.90;;;;;;4958053;28;20261;-71
2023/03/19 02:13:49;;;;;;;0.60;0.55;;;12.30;99.90;;;;;;4950642;28;20221;-70
2023/03/19 02:16:16;;;;;;;0.50;0.40;;;12.30;99.90;;;;;;4952979;28;20643;-70
2023/03/19 02:18:45;;;;;;;0.90;0.73;;;12.30;99.90;;;;;;4954934;28;20235;-70
2023/03/19 02:21:16;;;;;;;0.50;0.40;;;12.20;99.90;;;;;;4955441;28;20245;-71
2023/03/19 02:23:53;;;;;;;0.55;0.47;;;12.20;99.90;;;;;;4953604;28;20302;-70
2023/03/19 02:26:24;;;;;;;0.95;0.57;;;12.20;99.90;;;;;;4956433;28;20306;-71
2023/03/19 02:28:53;;;;;;;0.60;0.40;;;12.20;99.90;;;;;;4959400;28;20231;-71
2023/03/19 02:31:22;;;;;;;0.80;0.50;;;12.30;99.90;;;;;;4959978;28;20346;-71
2023/03/19 02:34:01;;;;;;;0.80;0.60;;;12.30;99.90;;;;;;4959159;28;20207;-71
2023/03/19 02:36:32;;;;;;;1.45;0.85;;;12.20;99.90;;;;;;4955432;28;20647;-71
2023/03/19 02:39:04;;;;;;;0.75;0.52;;;12.30;99.90;;;;;;4953036;28;20237;-70
2023/03/19 02:41:37;;;;;;;0.95;0.93;;;12.30;99.90;;;;;;4964163;28;20233;-70
2023/03/19 02:44:05;;;;;;;0.60;0.47;;;12.30;99.90;;;;;;4957425;28;20622;-71
2023/03/19 02:46:33;;;;;;;0.60;0.50;;;12.40;99.90;;;;;;4954012;28;20246;-70
2023/03/19 02:49:01;;;;;;;1.50;0.90;;;12.40;99.90;;;;;;4957918;28;20235;-70
2023/03/19 02:51:29;;;;;;;3.65;1.00;;;12.40;99.90;;;;;;4955791;28;20227;-70
2023/03/19 02:53:59;;;;;;;0.60;0.47;;;12.50;99.90;;;;;;4959138;28;20298;-70
2023/03/19 02:56:27;;;;;;;0.60;0.50;;;12.40;99.90;;;;;;4957311;28;20235;-69
2023/03/19 02:58:56;;;;;;;0.82;0.77;;;12.50;99.90;;;;;;4960024;28;21204;-71
2023/03/19 03:01:24;;;;;;;0.90;0.60;;;12.40;99.90;;;;;;4956302;28;20235;-71
2023/03/19 03:03:52;;;;;;;1.23;0.63;;;12.40;99.90;;;;;;4951872;28;20787;-71
2023/03/19 03:06:20;;;;;;;0.50;0.40;;;12.40;99.90;;;;;;4954821;28;20290;-72
2023/03/19 03:08:48;;;;;;;0.80;0.77;;;12.40;99.90;;;;;;4954103;28;20337;-71
2023/03/19 03:11:16;;;;;;;0.60;0.40;;;12.40;99.90;;;;;;4955253;28;20840;-72
2023/03/19 03:13:44;;;;;;;0.60;0.50;;;12.40;99.90;;;;;;4952612;28;20291;-72
2023/03/19 03:16:14;;;;;;;0.60;0.60;;;12.40;99.90;;;;;;4953530;28;20239;-71
2023/03/19 03:18:42;;;;;;;0.60;0.43;;;12.40;99.90;;;;;;4963329;28;20314;-71
2023/03/19 03:21:10;;;;;;;1.33;0.90;;;12.40;99.90;;;;;;4966689;28;20298;-73
2023/03/19 03:23:38;;;;;;;0.60;0.52;;;12.30;99.90;;;;;;4953341;28;20231;-71
2023/03/19 03:26:07;;;;;;;0.60;0.40;;;12.30;99.90;;;;;;4955358;28;20572;-71
2023/03/19 03:28:34;;;;;;;1.05;0.60;;;12.30;99.90;;;;;;4955539;28;20322;-72
2023/03/19 03:31:02;;;;;;;0.60;0.40;;;12.30;99.90;;;;;;4950514;28;20310;-71
2023/03/19 03:33:32;;;;;;;0.60;0.50;;;12.30;99.90;;;;;;4952526;28;20266;-71
2023/03/19 03:36:00;;;;;;;0.60;0.55;;;12.30;99.90;;;;;;4951439;28;20290;-71
2023/03/19 03:38:28;;;;;;;1.00;0.80;;;12.20;99.90;;;;;;4955097;28;20207;-71
2023/03/19 03:40:56;;;;;;;0.60;0.50;;;12.10;99.90;;;;;;4963352;28;20290;-71
2023/03/19 03:43:25;;;;;;;0.70;0.70;;;12.00;99.90;;;;;;4966598;28;20213;-70
2023/03/19 03:45:53;;;;;;;0.90;0.90;;;11.80;99.90;;;;;;4964955;28;20293;-71
2023/03/19 03:48:21;;;;;;;0.60;0.45;;;11.90;99.90;;;;;;4965625;28;20297;-71
2023/03/19 03:50:51;;;;;;;0.73;0.70;;;11.70;99.90;;;;;;4955608;28;20208;-71
2023/03/19 03:53:19;;;;;;;1.00;0.90;;;11.70;99.90;;;;;;4963992;28;20219;-72
2023/03/19 03:55:47;;;;;;;1.02;0.70;;;11.70;99.90;;;;;;4955484;28;20329;-71
2023/03/19 03:58:15;;;;;;;0.60;0.45;;;11.70;99.90;;;;;;4963918;28;20290;-70
2023/03/19 04:00:43;;;;;;;1.13;1.00;;;11.70;99.90;;;;;;4953273;28;20231;-70
2023/03/19 04:03:12;;;;;;;0.80;0.80;;;11.70;99.90;;;;;;4956207;28;20282;-71
2023/03/19 04:05:40;;;;;;;1.70;0.68;;;11.70;99.90;;;;;;4945703;28;20227;-72
2023/03/19 04:08:09;;;;;;;0.60;0.50;;;11.50;99.90;;;;;;4951498;28;20238;-71
2023/03/19 04:10:41;;;;;;;0.68;0.63;;;11.30;99.90;;;;;;4951336;28;20232;-72
2023/03/19 04:13:09;;;;;;;0.95;0.82;;;11.30;99.90;;;;;;4953102;28;20226;-71
2023/03/19 04:15:37;;;;;;;0.60;0.40;;;11.20;99.90;;;;;;4953075;28;20635;-72
2023/03/19 04:18:05;;;;;;;0.60;0.50;;;11.30;99.90;;;;;;4951254;28;20211;-70
2023/03/19 04:20:33;;;;;;;1.25;0.80;;;11.30;99.90;;;;;;4951180;28;20326;-71
2023/03/19 04:23:02;;;;;;;0.90;0.80;;;11.30;99.90;;;;;;4953100;28;20686;-70
2023/03/19 04:25:31;;;;;;;0.60;0.50;;;11.30;99.90;;;;;;4952692;28;20237;-70
2023/03/19 04:27:59;;;;;;;0.65;0.50;;;11.30;99.90;;;;;;4954450;28;20239;-70
2023/03/19 04:30:27;;;;;;;0.60;0.40;;;11.30;99.90;;;;;;4952652;28;20306;-70
2023/03/19 04:32:55;;;;;;;0.60;0.60;;;11.20;99.90;;;;;;4952609;28;20697;-72
2023/03/19 04:35:23;;;;;;;0.73;0.73;;;11.10;99.90;;;;;;4951540;28;20920;-70
2023/03/19 04:37:51;;;;;;;0.60;0.50;;;11.10;99.90;;;;;;4951579;28;20818;-71
2023/03/19 04:40:19;;;;;;;0.60;0.55;;;11.10;99.90;;;;;;4953482;28;20310;-71
2023/03/19 04:42:48;;;;;;;0.65;0.40;;;11.10;99.90;;;;;;4965739;28;20198;-70
2023/03/19 04:45:16;;;;;;;0.60;0.50;;;11.10;99.90;;;;;;4958239;28;20213;-71
2023/03/19 04:47:44;;;;;;;1.50;1.40;;;11.20;99.90;;;;;;4957273;28;20285;-72
2023/03/19 04:50:13;;;;;;;1.45;0.50;;;11.10;99.90;;;;;;4958218;28;20251;-71
2023/03/19 04:52:41;;;;;;;0.75;0.50;;;11.00;99.90;;;;;;4963198;28;20233;-71
2023/03/19 04:55:09;;;;;;;1.23;1.13;;;11.00;99.90;;;;;;4954555;28;20246;-71
2023/03/19 04:57:37;;;;;;;0.60;0.47;;;11.00;99.90;;;;;;4966756;28;20289;-71
2023/03/19 05:00:08;;;;;;;0.80;0.50;;;11.10;99.90;;;;;;4952297;28;20231;-71
2023/03/19 05:02:36;;;;;;;0.85;0.60;;;11.10;99.90;;;;;;4960130;28;20641;-71
2023/03/19 05:05:04;;;;;;;0.70;0.47;;;11.00;99.90;;;;;;4950770;28;20209;-72
2023/03/19 05:07:33;;;;;;;0.70;0.50;;;10.90;99.90;;;;;;4952306;28;20298;-71
2023/03/19 05:10:01;;;;;;;0.60;0.50;;;11.00;99.90;;;;;;4961535;28;20259;-70
2023/03/19 05:12:29;;;;;;;0.50;0.40;;;10.90;99.90;;;;;;4955275;28;20247;-70
2023/03/19 05:14:56;;;;;;;0.70;0.60;;;10.80;99.90;;;;;;4952284;28;20678;-70
2023/03/19 05:17:26;;;;;;;0.70;0.60;;;10.80;99.90;;;;;;4953271;28;20276;-70
2023/03/19 05:19:54;;;;;;;0.60;0.45;;;10.80;99.90;;;;;;4953242;28;20707;-75
2023/03/19 05:22:23;;;;;;;1.40;0.63;;;10.70;99.90;;;;;;4956270;28;20282;-75
2023/03/19 05:24:51;;;;;;;1.38;1.10;;;10.60;99.90;;;;;;4953198;28;20267;-70
2023/03/19 05:27:19;;;;;;;0.70;0.63;;;10.50;99.90;;;;;;4953240;28;20291;-72
2023/03/19 05:29:47;;;;;;;0.70;0.50;;;10.50;99.90;;;;;;4961669;28;20318;-76
2023/03/19 05:32:15;;;;;;;1.02;0.93;;;10.50;99.90;;;;;;4955477;28;20203;-71
2023/03/19 05:34:44;;;;;;;0.60;0.50;;;10.50;99.90;;;;;;4953607;28;20203;-70
2023/03/19 05:37:12;;;;;;;0.80;0.60;;;10.50;99.90;;;;;;4953828;28;20286;-73
2023/03/19 05:39:40;;;;;;;0.95;0.85;;;10.40;99.90;;;;;;4958794;28;20253;-71
2023/03/19 05:42:08;;;;;;;1.27;0.60;;;10.20;99.90;;;;;;4957313;28;20286;-71
2023/03/19 05:44:36;;;;;;;0.88;0.70;;;10.20;99.90;;;;;;4958343;28;20242;-69
2023/03/19 05:47:07;;;;;;;0.90;0.77;;;10.20;99.90;;;;;;4951539;28;20221;-71
2023/03/19 05:49:35;;;;;;;0.90;0.70;;;10.20;99.90;;;;;;4950724;28;20306;-71
2023/03/19 05:52:05;;;;;;;0.60;0.50;;;10.20;99.90;;;;;;4967996;28;20238;-69
2023/03/19 05:54:32;;;;;;;0.98;0.95;;;10.20;99.90;;;;;;4952003;28;20255;-72
2023/03/19 05:57:01;;;;;;;0.80;0.60;;;10.20;99.90;;;;;;4945167;28;20238;-72
2023/03/19 05:59:31;;;;;;;2.25;0.73;;;10.30;99.90;;;;;;4949713;28;20238;-75
2023/03/19 06:01:59;;;;;;;1.08;0.85;;;10.20;99.90;;;;;;4946601;28;20246;-72
2023/03/19 06:04:27;;;;;;;1.13;0.50;;;10.30;99.90;;;;;;4950732;28;20235;-76
2023/03/19 06:06:55;;;;;;;0.70;0.50;;;10.40;99.90;;;;;;4948935;28;20668;-74
2023/03/19 06:09:24;;;;;;;0.68;0.47;;;10.50;99.90;;;;;;4948856;28;20306;-70
2023/03/19 06:11:52;;;;;;;1.30;1.00;;;10.50;99.90;;;;;;4950157;28;20238;-72
2023/03/19 06:14:20;;;;;;;0.85;0.65;;;10.60;99.90;;;;;;4949437;28;20322;-69
2023/03/19 06:16:48;;;;;;;1.15;0.80;;;10.50;99.90;;;;;;4955519;28;20290;-69
2023/03/19 06:19:16;;;;;;;1.35;1.15;;;10.50;99.90;;;;;;4949918;28;20322;-71
2023/03/19 06:21:43;;;;;;;1.30;0.95;;;10.40;99.90;;;;;;4950008;28;20728;-77
2023/03/19 06:24:12;;;;;;;1.33;1.08;;;10.40;99.90;;;;;;4951302;28;20693;-70
2023/03/19 06:26:42;;;;;;;1.25;1.15;;;10.50;99.90;;;;;;4951852;28;20297;-72
2023/03/19 06:29:10;;;;;;;0.80;0.60;;;10.50;99.90;;;;;;4947870;28;20305;-70
2023/03/19 06:31:40;;;;;;;0.70;0.60;;;10.60;99.90;;;;;;4951956;28;20217;-70
2023/03/19 06:34:08;;;;;;;0.90;0.60;;;10.70;99.90;;;;;;4956154;28;20237;-69
2023/03/19 06:36:36;;;;;;;1.23;1.13;;;10.70;99.90;;;;;;4946477;28;20200;-69
2023/03/19 06:39:04;;;;;;;0.68;0.55;;;10.80;99.90;;;;;;4951298;28;20227;-70
2023/03/19 06:41:32;;;;;;;0.95;0.85;;;10.80;99.90;;;;;;4947955;28;20915;-70
2023/03/19 06:44:01;;;;;;;0.60;0.57;;;10.90;99.90;;;;;;4950484;28;20718;-69
2023/03/19 06:46:30;;;;;;;0.60;0.55;;;11.00;99.90;;;;;;4950509;28;20207;-72
2023/03/19 06:48:58;;;;;;;0.70;0.70;;;11.00;99.90;;;;;;4946230;28;20235;-70
2023/03/19 06:51:26;;;;;;;1.80;1.30;;;11.00;99.90;;;;;;4947879;28;20709;-72
2023/03/19 06:53:55;;;;;;;0.90;0.80;;;11.10;99.90;;;;;;4949593;28;20302;-70
2023/03/19 06:56:23;;;;;;;1.25;0.60;;;11.10;99.90;;;;;;4951832;28;20302;-70
2023/03/19 06:58:51;;;;;;;0.70;0.70;;;11.10;99.90;;;;;;4949068;28;20648;-70
2023/03/19 07:01:20;;;;;;;0.95;0.82;;;11.20;99.90;;;;;;4947943;28;20231;-70
2023/03/19 07:03:48;;;;;;;1.67;1.00;;;11.20;99.90;;;;;;4950170;28;20713;-70
2023/03/19 07:06:16;;;;;;;0.70;0.60;;;11.20;99.90;;;;;;4951136;28;20207;-77
2023/03/19 07:08:45;;;;;;;0.60;0.55;;;11.20;99.90;;;;;;4950675;28;20314;-73
2023/03/19 07:11:14;;;;;;;0.90;0.77;;;11.10;99.90;;;;;;4953755;28;20215;-69
2023/03/19 07:13:42;;;;;;;1.02;0.70;;;11.20;99.90;;;;;;4959356;28;20246;-70
2023/03/19 07:16:10;;;;;;;0.70;0.65;;;11.30;99.90;;;;;;4951006;28;20651;-69
2023/03/19 07:18:39;;;;;;;0.70;0.63;;;11.20;99.90;;;;;;4956724;28;20693;-69
2023/03/19 07:21:07;;;;;;;0.60;0.50;;;11.30;99.90;;;;;;4949774;28;20318;-70
2023/03/19 07:23:35;;;;;;;1.13;1.02;;;11.50;99.90;;;;;;4951379;28;20302;-74
2023/03/19 07:26:03;;;;;;;1.17;0.90;;;11.50;99.90;;;;;;4958238;28;20222;-69
2023/03/19 07:28:31;;;;;;;1.10;1.00;;;11.60;99.90;;;;;;4958202;28;20721;-69
2023/03/19 07:30:59;;;;;;;0.90;0.80;;;11.60;99.90;;;;;;4954581;28;20255;-69
2023/03/19 07:33:26;;;;;;;0.60;0.50;;;11.60;99.90;;;;;;4953167;28;21201;-70
2023/03/19 07:35:56;;;;;;;0.75;0.75;;;11.50;99.90;;;;;;4953288;28;20214;-69
2023/03/19 07:38:23;;;;;;;0.90;0.63;;;11.40;99.90;;;;;;4950282;28;20671;-70
2023/03/19 07:40:51;;;;;;;0.80;0.80;;;11.30;99.90;;;;;;4955416;28;20227;-69
2023/03/19 07:43:29;;;;;;;1.20;1.10;;;11.30;99.90;;;;;;4966571;28;20270;-69
2023/03/19 07:45:57;;;;;;;0.77;0.70;;;11.30;99.90;;;;;;4956741;28;20674;-69
2023/03/19 07:48:25;;;;;;;0.60;0.50;;;11.30;99.90;;;;;;4954957;28;20629;-69
2023/03/19 07:50:53;;;;;;;0.70;0.57;;;11.50;99.90;;;;;;4953436;28;20199;-70
2023/03/19 07:53:22;;;;;;;1.05;0.95;;;11.70;99.90;;;;;;4957085;28;20738;-68
2023/03/19 07:55:50;;;;;;;0.60;0.52;;;11.80;99.90;;;;;;4959768;28;20317;-69
2023/03/19 07:58:18;;;;;;;0.60;0.50;;;11.70;99.90;;;;;;4965472;28;20222;-69
2023/03/19 08:00:46;;;;;;;0.80;0.45;;;11.80;99.90;;;;;;4952604;28;20290;-69
2023/03/19 08:03:14;;;;;;;0.82;0.70;;;11.90;99.90;;;;;;4951334;28;20238;-69
2023/03/19 08:05:42;;;;;;;0.60;0.40;;;12.10;99.90;;;;;;4950629;28;20237;-69
2023/03/19 08:08:10;;;;;;;0.60;0.50;;;12.30;99.90;;;;;;4953054;28;20234;-78
2023/03/19 08:10:39;;;;;;;0.60;0.50;;;12.40;99.90;;;;;;4954579;28;20636;-69
2023/03/19 08:13:08;;;;;;;1.20;0.73;;;12.50;99.90;;;;;;4956990;28;20235;-70
2023/03/19 08:15:36;;;;;;;1.30;0.98;;;12.60;99.90;;;;;;4953854;28;20306;-72
2023/03/19 08:18:05;;;;;;;1.00;1.00;;;12.60;99.90;;;;;;4955697;28;20678;-69
2023/03/19 08:20:32;;;;;;;0.65;0.65;;;12.60;99.90;;;;;;4953067;28;20253;-68
2023/03/19 08:23:01;;;;;;;1.10;0.95;;;12.50;99.90;;;;;;4953857;28;20219;-68
2023/03/19 08:25:31;;;;;;;0.70;0.70;;;12.20;99.90;;;;;;4958180;28;20203;-68
2023/03/19 08:28:00;;;;;;;0.80;0.80;;;12.10;99.90;;;;;;4956837;28;20210;-67
2023/03/19 08:30:28;;;;;;;0.90;0.82;;;12.40;99.90;;;;;;4961211;28;20224;-68
2023/03/19 08:32:56;;;;;;;0.68;0.68;;;12.60;99.90;;;;;;4957652;28;20199;-70
2023/03/19 08:35:26;;;;;;;1.80;1.00;;;12.50;99.90;;;;;;4959855;28;20306;-68
2023/03/19 08:37:54;;;;;;;1.15;1.05;;;12.70;99.90;;;;;;4950384;28;20286;-67
2023/03/19 08:40:23;;;;;;;0.73;0.55;;;12.80;99.90;;;;;;4949645;28;20772;-76
2023/03/19 08:42:50;;;;;;;1.05;0.95;;;13.00;99.90;;;;;;4955589;28;20855;-68
2023/03/19 08:45:20;;;;;;;0.82;0.63;;;13.20;99.90;;;;;;4953063;28;20213;-68
2023/03/19 08:47:49;;;;;;;0.70;0.60;;;13.70;99.90;;;;;;4952220;28;20619;-68
2023/03/19 08:50:18;;;;;;;0.82;0.80;;;14.00;99.90;;;;;;4949406;28;20733;-68
2023/03/19 08:52:46;;;;;;;1.40;0.70;;;14.30;99.90;;;;;;4952823;28;20580;-68
2023/03/19 08:55:14;;;;;;;1.20;1.00;;;14.70;99.90;;;;;;4950520;28;20231;-68
2023/03/19 08:57:42;;;;;;;0.90;0.65;;;14.70;99.90;;;;;;4954352;28;20230;-66
2023/03/19 09:00:11;;;;;;;1.08;1.00;;;14.70;99.90;;;;;;4954199;28;20722;-67
2023/03/19 09:02:40;;;;;;;0.60;0.57;;;14.80;99.90;;;;;;4950602;28;20616;-68
2023/03/19 09:05:09;;;;;;;0.77;0.70;;;14.90;99.90;;;;;;4950887;28;20215;-68
2023/03/19 09:07:36;;;;;;;0.63;0.60;;;14.50;99.90;;;;;;4951282;28;20586;-74
2023/03/19 09:10:05;;;;;;;0.82;0.82;;;14.40;99.90;;;;;;4948868;28;20309;-67
2023/03/19 09:12:33;;;;;;;0.90;0.65;;;14.50;99.90;;;;;;4951987;28;20298;-68
2023/03/19 09:15:02;;;;;;;0.57;0.45;;;14.60;99.90;;;;;;4959306;28;20262;-68
2023/03/19 09:17:30;;;;;;;1.58;1.48;;;14.50;99.90;;;;;;4969177;28;20261;-68
2023/03/19 09:19:59;;;;;;;1.92;0.55;;;14.70;99.90;;;;;;4949630;28;21457;-68
2023/03/19 09:22:27;;;;;;;1.13;1.02;;;15.00;99.90;;;;;;4968652;28;20725;-69
2023/03/19 09:24:55;;;;;;;1.33;1.23;;;15.00;99.90;;;;;;4952185;28;20230;-67
2023/03/19 09:27:22;;;;;;;0.82;0.82;;;14.80;99.90;;;;;;4961697;28;20203;-67
2023/03/19 09:29:50;;;;;;;0.70;0.65;;;14.90;99.90;;;;;;4952638;28;20306;-68
2023/03/19 09:32:18;;;;;;;0.68;0.63;;;15.20;99.90;;;;;;4959298;28;20309;-68
2023/03/19 09:34:46;;;;;;;0.70;0.50;;;15.50;99.90;;;;;;4952721;28;20213;-68
2023/03/19 09:37:15;;;;;;;0.63;0.57;;;15.80;99.90;;;;;;4951258;28;20721;-70
2023/03/19 09:39:43;;;;;;;0.60;0.60;;;15.90;99.90;;;;;;4949023;28;20255;-68
2023/03/19 09:42:25;;;;;;;0.60;0.50;;;16.20;99.90;;;;;;4952852;28;20258;-68
2023/03/19 09:44:53;;;;;;;0.70;0.65;;;16.40;99.90;;;;;;4953014;28;20290;-68
2023/03/19 09:47:28;;;;;;;0.60;0.50;;;16.70;99.90;;;;;;4951686;28;20321;-70
2023/03/19 09:50:00;;;;;;;1.10;0.65;;;17.00;99.90;;;;;;4951133;28;20237;-67
2023/03/19 09:52:41;;;;;;;0.77;0.60;;;17.00;99.90;;;;;;4955440;28;20204;-67
2023/03/19 09:55:20;;;;;;;0.90;0.70;;;17.10;99.90;;;;;;4961790;28;20223;-68
2023/03/19 09:57:48;;;;;;;0.80;0.55;;;17.20;99.90;;;;;;4952720;28;20203;-68
2023/03/19 10:00:22;;;;;;;1.10;1.00;;;17.00;99.90;;;;;;4952169;28;20262;-68
2023/03/19 10:02:56;;;;;;;0.70;0.60;;;16.60;99.90;;;;;;4970478;28;20210;-68
2023/03/19 10:05:32;;;;;;;0.75;0.50;;;16.40;99.90;;;;;;4970567;28;20230;-67
2023/03/19 10:08:23;;;;;;;0.60;0.50;;;16.10;99.90;;;;;;4964913;28;20210;-68
2023/03/19 10:11:03;;;;;;;0.90;0.80;;;15.80;99.90;;;;;;4961155;28;20305;-69
2023/03/19 10:13:45;;;;;;;1.73;1.20;;;15.80;99.90;;;;;;4967755;28;20241;-69
2023/03/19 10:16:18;;;;;;;1.13;1.02;;;15.70;99.90;;;;;;4957421;28;20306;-69
2023/03/19 10:18:50;;;;;;;0.70;0.63;;;15.60;99.90;;;;;;4970528;28;20273;-70
2023/03/19 10:21:26;;;;;;;1.15;0.75;;;15.80;99.90;;;;;;4956821;28;20295;-71
2023/03/19 10:23:59;;;;;;;0.88;0.88;;;15.80;99.90;;;;;;4955142;28;20293;-69
2023/03/19 10:26:30;;;;;;;1.35;0.80;;;16.00;99.90;;;;;;4948379;28;20282;-69
2023/03/19 10:29:04;;;;;;;0.60;0.40;;;16.20;99.90;;;;;;4959886;28;20301;-67
2023/03/19 10:31:42;;;;;;;0.60;0.50;;;16.20;99.90;;;;;;4952744;28;20250;-69
2023/03/19 10:34:30;;;;;;;0.60;0.40;;;16.20;99.90;;;;;;4946384;28;20215;-68
2023/03/19 10:37:00;;;;;;;0.70;0.60;;;16.30;99.90;;;;;;4943618;28;20230;-69
2023/03/19 10:39:31;;;;;;;0.77;0.57;;;16.30;99.90;;;;;;4946582;28;20645;-69
2023/03/19 10:42:12;;;;;;;0.60;0.50;;;16.00;99.90;;;;;;4950360;28;20286;-68
2023/03/19 10:44:47;;;;;;;0.52;0.40;;;15.80;99.90;;;;;;4950156;28;20218;-69
2023/03/19 10:47:18;;;;;;;0.70;0.70;;;15.70;99.90;;;;;;4949906;28;20207;-67
2023/03/19 10:49:46;;;;;;;0.70;0.57;;;15.70;99.90;;;;;;4949231;28;20234;-68
2023/03/19 10:52:21;;;;;;;1.58;1.35;;;15.60;99.90;;;;;;4948545;28;20314;-69
2023/03/19 10:54:55;;;;;;;0.60;0.52;;;15.70;99.90;;;;;;4950149;28;20203;-69
2023/03/19 10:57:27;;;;;;;0.80;0.70;;;15.70;99.90;;;;;;4953520;28;20657;-68
2023/03/19 10:59:55;;;;;;;0.60;0.50;;;15.80;99.90;;;;;;4951932;28;20309;-68
2023/03/19 11:02:26;;;;;;;0.70;0.65;;;15.80;99.90;;;;;;4955873;28;20231;-68
2023/03/19 11:05:09;;;;;;;1.10;0.70;;;15.80;99.90;;;;;;4957140;28;20210;-68
2023/03/19 11:07:37;;;;;;;0.60;0.50;;;15.80;99.90;;;;;;4957991;28;20207;-69
2023/03/19 11:10:12;;;;;;;0.70;0.70;;;16.00;99.90;;;;;;4955652;28;20306;-69
2023/03/19 11:12:41;;;;;;;0.60;0.40;;;16.20;99.90;;;;;;4955523;28;20241;-77
2023/03/19 11:15:19;;;;;;;0.70;0.60;;;16.50;99.90;;;;;;4952472;28;20238;-67
2023/03/19 11:17:49;;;;;;;0.63;0.43;;;16.60;99.90;;;;;;4956144;28;20227;-67
2023/03/19 11:20:26;;;;;;;0.98;0.88;;;16.90;99.90;;;;;;5005535;22;20659;-66
2023/03/19 11:22:55;;;;;;;2.30;0.52;;;17.40;99.90;;;;;;4981869;28;20297;-66
2023/03/19 11:25:27;;;;;;;0.85;0.85;;;17.50;99.90;;;;;;4977811;28;20325;-66
2023/03/19 11:28:00;;;;;;;0.70;0.40;;;17.70;99.90;;;;;;4982689;28;20261;-66
2023/03/19 11:30:36;;;;;;;0.70;0.70;;;17.80;99.90;;;;;;4982936;28;20231;-65
2023/03/19 11:33:30;;;;;;;0.60;0.50;;;17.70;99.90;;;;;;4975653;28;20301;-66
2023/03/19 11:36:04;;;;;;;0.60;0.45;;;18.10;99.90;;;;;;4966296;28;20218;-65
2023/03/19 11:38:39;;;;;;;0.60;0.50;;;18.50;99.90;;;;;;4969651;28;20221;-65
2023/03/19 11:41:18;;;;;;;1.65;0.75;;;18.50;99.90;;;;;;4972515;28;20280;-65
2023/03/19 11:43:55;;;;;;;1.35;1.17;;;18.10;99.90;;;;;;4975074;28;20210;-65
2023/03/19 11:46:34;;;;;;;0.70;0.70;;;17.60;99.90;;;;;;4977850;28;20206;-65
2023/03/19 11:49:18;;;;;;;0.80;0.70;;;17.10;99.90;;;;;;4970067;28;20213;-65
2023/03/19 11:51:50;;;;;;;0.50;0.40;;;17.10;99.90;;;;;;4974875;28;20642;-65
2023/03/19 11:54:27;;;;;;;0.60;0.40;;;17.00;99.90;;;;;;4972107;28;20642;-65
2023/03/19 11:57:00;;;;;;;0.63;0.60;;;16.80;99.90;;;;;;4973192;28;20229;-65
2023/03/19 11:59:38;;;;;;;1.88;0.80;;;16.90;99.90;;;;;;4967149;28;20234;-65
2023/03/19 12:02:33;;;;;;;0.65;0.60;;;17.50;99.90;;;;;;4973753;28;20210;-65
2023/03/19 12:05:19;;;;;;;0.60;0.50;;;18.20;99.90;;;;;;4947011;28;20254;-66
2023/03/19 12:08:00;;;;;;;0.60;0.40;;;19.10;99.90;;;;;;4968190;28;20286;-65
2023/03/19 12:10:37;;;;;;;0.60;0.40;;;19.90;99.90;;;;;;4971501;28;20251;-65
2023/03/19 12:13:19;;;;;;;0.73;0.50;;;19.90;99.90;;;;;;4971359;28;20614;-65
2023/03/19 12:15:57;;;;;;;0.82;0.80;;;18.90;99.90;;;;;;4972293;28;20289;-65
2023/03/19 12:18:47;;;;;;;0.70;0.50;;;18.40;99.90;;;;;;4980791;28;20210;-65
2023/03/19 12:21:22;;;;;;;0.50;0.40;;;18.20;99.90;;;;;;4967751;28;20926;-65
2023/03/19 12:24:02;;;;;;;0.80;0.80;;;18.10;99.90;;;;;;4979295;28;20668;-65
2023/03/19 12:26:39;;;;;;;0.77;0.75;;;18.10;99.90;;;;;;4972110;28;20238;-65
2023/03/19 12:29:18;;;;;;;0.60;0.50;;;18.00;99.90;;;;;;4984083;28;20234;-65
2023/03/19 12:32:14;;;;;;;0.70;0.47;;;18.00;99.90;;;;;;4978460;28;20748;-65
2023/03/19 12:34:48;;;;;;;0.60;0.40;;;17.60;99.90;;;;;;4976255;28;20233;-65
2023/03/19 12:37:22;;;;;;;0.60;0.50;;;17.40;99.90;;;;;;4971755;28;20223;-65
2023/03/19 12:40:03;;;;;;;0.70;0.60;;;17.10;99.90;;;;;;4968728;28;20281;-64
2023/03/19 12:42:37;;;;;;;0.70;0.60;;;16.90;99.90;;;;;;4977440;28;20225;-65
2023/03/19 12:45:18;;;;;;;0.60;0.52;;;16.70;99.90;;;;;;4966327;28;20298;-65
2023/03/19 12:47:47;;;;;;;0.60;0.50;;;16.40;99.90;;;;;;4983789;28;20297;-64
2023/03/19 12:50:17;;;;;;;0.75;0.68;;;16.30;99.90;;;;;;4969965;28;20309;-65
2023/03/19 12:52:49;;;;;;;0.80;0.63;;;16.10;99.90;;;;;;4972117;28;20637;-64
2023/03/19 12:55:21;;;;;;;0.60;0.52;;;15.70;99.90;;;;;;4969143;28;20289;-65
2023/03/19 12:57:53;;;;;;;0.60;0.50;;;15.70;99.90;;;;;;4970593;28;20285;-64
2023/03/19 13:00:28;;;;;;;1.13;0.70;;;15.60;99.90;;;;;;4977255;28;20226;-65
2023/03/19 13:03:01;;;;;;;0.82;0.73;;;15.30;99.90;;;;;;4970320;28;20283;-65
2023/03/19 13:05:35;;;;;;;0.73;0.45;;;15.10;99.90;;;;;;4966599;28;20293;-65